createdAt,value
2023-04-13T00:00:12.588Z,7.60
2023-04-13T00:03:02.246Z,7.60
2023-04-13T00:05:51.690Z,7.60
2023-04-13T00:08:39.476Z,7.60
2023-04-13T00:11:28.037Z,7.50
2023-04-13T00:14:15.493Z,7.50
2023-04-13T00:17:03.372Z,7.50
2023-04-13T00:19:52.758Z,7.40
2023-04-13T00:22:40.504Z,7.40
2023-04-13T00:25:27.698Z,7.30
2023-04-13T00:28:16.702Z,7.30
2023-04-13T00:31:04.216Z,7.30
2023-04-13T00:33:51.637Z,7.30
2023-04-13T00:36:39.161Z,7.20
2023-04-13T00:39:27.972Z,7.20
2023-04-13T00:42:15.920Z,7.20
2023-04-13T00:45:03.695Z,7.20
2023-04-13T00:47:51.857Z,7.20
2023-04-13T00:50:40.155Z,7.10
2023-04-13T00:53:27.550Z,7.10
2023-04-13T00:56:14.801Z,7.00
2023-04-13T00:59:02.336Z,7.00
2023-04-13T01:01:54.894Z,7.00
2023-04-13T01:04:42.688Z,7.00
2023-04-13T01:07:39.818Z,7.00
2023-04-13T01:10:32.716Z,7.10
2023-04-13T01:13:26.131Z,7.20
2023-04-13T01:16:22.316Z,7.20
2023-04-13T01:19:12.502Z,7.20
2023-04-13T01:22:00.511Z,7.10
2023-04-13T01:24:54.422Z,7.10
2023-04-13T01:27:47.542Z,7.00
2023-04-13T01:30:37.567Z,7.10
2023-04-13T01:33:25.471Z,7.00
2023-04-13T01:36:13.737Z,7.00
2023-04-13T01:39:01.383Z,7.00
2023-04-13T01:41:49.171Z,7.00
2023-04-13T01:44:37.114Z,7.00
2023-04-13T01:47:26.108Z,7.00
2023-04-13T01:50:23.941Z,7.00
2023-04-13T01:53:15.335Z,6.90
2023-04-13T01:56:05.064Z,6.80
2023-04-13T01:58:57.659Z,6.80
2023-04-13T02:01:45.072Z,6.80
2023-04-13T02:04:33.076Z,6.80
2023-04-13T02:07:20.345Z,6.80
2023-04-13T02:10:08.478Z,6.80
2023-04-13T02:12:55.844Z,6.80
2023-04-13T02:15:44.529Z,6.80
2023-04-13T02:18:31.928Z,6.80
2023-04-13T02:21:19.195Z,6.80
2023-04-13T02:24:07.826Z,6.70
2023-04-13T02:26:56.599Z,6.80
2023-04-13T02:29:44.628Z,6.70
2023-04-13T02:32:33.001Z,6.80
2023-04-13T02:35:20.818Z,7.00
2023-04-13T02:38:10.055Z,7.10
2023-04-13T02:40:59.996Z,7.10
2023-04-13T02:43:47.382Z,7.10
2023-04-13T02:46:34.986Z,7.20
2023-04-13T02:49:22.310Z,7.20
2023-04-13T02:52:09.945Z,7.30
2023-04-13T02:54:57.192Z,7.30
2023-04-13T02:57:44.725Z,7.20
2023-04-13T03:00:34.260Z,7.10
2023-04-13T03:03:21.669Z,7.20
2023-04-13T03:06:09.623Z,7.20
2023-04-13T03:08:57.167Z,7.30
2023-04-13T03:11:44.451Z,7.40
2023-04-13T03:14:33.147Z,7.40
2023-04-13T03:17:20.664Z,7.50
2023-04-13T03:20:13.139Z,7.50
2023-04-13T03:23:01.655Z,7.50
2023-04-13T03:25:49.180Z,7.50
2023-04-13T03:28:36.423Z,7.50
2023-04-13T03:31:23.696Z,7.60
2023-04-13T03:34:11.323Z,7.60
2023-04-13T03:36:58.448Z,7.60
2023-04-13T03:39:46.021Z,7.60
2023-04-13T03:42:33.228Z,7.60
2023-04-13T03:45:20.985Z,7.70
2023-04-13T03:48:08.316Z,7.70
2023-04-13T03:50:56.164Z,7.70
2023-04-13T03:53:43.416Z,7.60
2023-04-13T03:56:31.313Z,7.70
2023-04-13T03:59:18.642Z,7.80
2023-04-13T04:02:06.207Z,7.80
2023-04-13T04:04:54.055Z,7.90
2023-04-13T04:07:41.409Z,8.00
2023-04-13T04:10:29.553Z,8.00
2023-04-13T04:13:16.845Z,8.00
2023-04-13T04:16:06.389Z,8.10
2023-04-13T04:18:54.119Z,8.10
2023-04-13T04:21:43.082Z,8.00
2023-04-13T04:24:30.482Z,8.10
2023-04-13T04:27:17.937Z,8.00
2023-04-13T04:30:07.067Z,7.90
2023-04-13T04:32:54.719Z,7.90
2023-04-13T04:35:44.185Z,8.00
2023-04-13T04:38:32.924Z,8.00
2023-04-13T04:41:21.107Z,7.90
2023-04-13T04:44:08.849Z,8.00
2023-04-13T04:46:56.371Z,8.00
2023-04-13T04:49:43.892Z,8.10
2023-04-13T04:52:32.882Z,8.00
2023-04-13T04:55:20.135Z,8.10
2023-04-13T04:58:07.717Z,8.20
2023-04-13T05:00:56.829Z,8.20
2023-04-13T05:03:44.932Z,8.20
2023-04-13T05:06:32.900Z,8.20
2023-04-13T05:09:20.437Z,8.20
2023-04-13T05:12:07.713Z,8.30
2023-04-13T05:14:55.423Z,8.40
2023-04-13T05:17:44.361Z,8.40
2023-04-13T05:20:32.551Z,8.40
2023-04-13T05:23:20.049Z,8.40
2023-04-13T05:26:09.827Z,8.50
2023-04-13T05:28:57.791Z,8.50
2023-04-13T05:31:45.415Z,8.50
2023-04-13T05:34:33.739Z,8.60
2023-04-13T05:37:21.351Z,8.60
2023-04-13T05:40:11.106Z,8.60
2023-04-13T05:42:58.335Z,8.60
2023-04-13T05:45:45.506Z,8.50
2023-04-13T05:48:34.434Z,8.60
2023-04-13T05:51:23.214Z,8.60
2023-04-13T05:54:13.935Z,8.60
2023-04-13T05:57:01.153Z,8.60
2023-04-13T05:59:48.473Z,8.60
2023-04-13T06:02:37.200Z,8.60
2023-04-13T06:05:24.395Z,8.60
2023-04-13T06:08:11.916Z,8.70
2023-04-13T06:11:01.934Z,8.70
2023-04-13T06:13:49.874Z,8.80
2023-04-13T06:16:37.994Z,8.80
2023-04-13T06:19:28.795Z,8.80
2023-04-13T06:22:14.693Z,9.00
2023-04-13T06:25:02.043Z,9.00
2023-04-13T06:27:49.886Z,8.90
2023-04-13T06:30:39.332Z,9.00
2023-04-13T06:33:26.762Z,9.10
2023-04-13T06:36:15.901Z,9.20
2023-04-13T06:39:07.007Z,9.20
2023-04-13T06:41:55.692Z,9.30
2023-04-13T06:44:43.283Z,9.30
2023-04-13T06:47:30.655Z,9.20
2023-04-13T06:50:21.474Z,9.00
2023-04-13T06:53:08.918Z,8.90
2023-04-13T06:56:02.348Z,8.90
2023-04-13T06:58:50.189Z,9.20
2023-04-13T07:01:38.113Z,9.30
2023-04-13T07:04:28.112Z,9.20
2023-04-13T07:07:13.944Z,9.10
2023-04-13T07:10:01.140Z,9.00
2023-04-13T07:12:48.446Z,9.10
2023-04-13T07:15:40.590Z,9.10
2023-04-13T07:18:27.715Z,9.20
2023-04-13T07:21:15.392Z,9.20
2023-04-13T07:24:02.750Z,9.10
2023-04-13T07:26:50.239Z,9.10
2023-04-13T07:29:37.727Z,9.20
2023-04-13T07:32:30.872Z,9.20
2023-04-13T07:35:15.747Z,9.20
2023-04-13T07:38:02.944Z,9.00
2023-04-13T07:40:50.199Z,8.90
2023-04-13T07:43:37.808Z,8.90
2023-04-13T07:46:26.912Z,9.00
2023-04-13T07:49:14.548Z,9.00
2023-04-13T07:52:01.998Z,9.10
2023-04-13T07:54:49.785Z,9.20
2023-04-13T07:57:37.289Z,9.40
2023-04-13T08:00:24.563Z,9.30
2023-04-13T08:06:00.127Z,9.10
2023-04-13T08:08:47.676Z,9.20
2023-04-13T08:11:35.221Z,9.20
2023-04-13T08:14:22.623Z,9.10
2023-04-13T08:17:11.339Z,9.30
2023-04-13T08:19:58.749Z,9.40
2023-04-13T08:22:46.598Z,9.30
2023-04-13T08:25:35.722Z,9.30
2023-04-13T08:28:23.028Z,9.30
2023-04-13T08:31:10.359Z,9.20
2023-04-13T08:33:57.856Z,9.20
2023-04-13T08:36:48.841Z,9.40
2023-04-13T08:39:37.997Z,9.60
2023-04-13T08:42:28.949Z,9.80
2023-04-13T08:45:16.896Z,10.00
2023-04-13T08:48:05.158Z,10.00
2023-04-13T08:50:56.459Z,10.00
2023-04-13T08:53:43.549Z,10.00
2023-04-13T08:56:44.689Z,9.90
2023-04-13T08:59:23.205Z,9.90
2023-04-13T09:02:13.023Z,9.90
2023-04-13T09:05:03.548Z,10.00
2023-04-13T09:07:52.922Z,10.00
2023-04-13T09:10:40.897Z,10.30
2023-04-13T09:13:28.756Z,10.20
2023-04-13T09:16:16.390Z,10.30
2023-04-13T09:19:04.510Z,10.40
2023-04-13T09:21:52.300Z,10.30
2023-04-13T09:24:42.888Z,10.20
2023-04-13T09:27:30.164Z,10.00
2023-04-13T09:30:22.744Z,10.20
2023-04-13T09:33:11.640Z,10.20
2023-04-13T09:36:01.907Z,10.30
2023-04-13T09:38:58.082Z,10.80
2023-04-13T09:41:47.205Z,11.10
2023-04-13T09:44:35.924Z,11.30
2023-04-13T09:47:24.350Z,11.50
2023-04-13T09:50:27.405Z,11.60
2023-04-13T09:53:14.524Z,11.80
2023-04-13T09:56:01.996Z,11.80
2023-04-13T09:58:50.340Z,12.00
2023-04-13T10:01:38.605Z,12.10
2023-04-13T10:04:26.522Z,11.90
2023-04-13T10:07:18.431Z,12.10
2023-04-13T10:10:06.655Z,12.40
2023-04-13T10:12:57.231Z,12.90
2023-04-13T10:16:04.461Z,13.40
2023-04-13T10:19:01.699Z,13.60
2023-04-13T10:21:51.867Z,13.50
2023-04-13T10:24:43.077Z,13.30
2023-04-13T10:27:30.007Z,13.30
2023-04-13T10:30:18.731Z,13.30
2023-04-13T10:33:09.575Z,13.50
2023-04-13T10:36:02.207Z,13.40
2023-04-13T10:38:49.557Z,13.60
2023-04-13T10:41:37.762Z,13.50
2023-04-13T10:44:24.990Z,13.70
2023-04-13T10:47:15.708Z,13.80
2023-04-13T10:50:04.050Z,13.90
2023-04-13T10:53:04.575Z,13.90
2023-04-13T10:55:58.053Z,14.00
2023-04-13T10:58:55.631Z,14.10
2023-04-13T11:01:43.911Z,14.30
2023-04-13T11:04:32.206Z,14.40
2023-04-13T11:07:26.200Z,14.20
2023-04-13T11:10:13.792Z,14.30
2023-04-13T11:13:02.017Z,14.60
2023-04-13T11:15:54.513Z,14.50
2023-04-13T11:18:43.773Z,14.30
2023-04-13T11:21:32.495Z,14.30
2023-04-13T11:24:24.854Z,14.40
2023-04-13T11:27:23.617Z,14.40
2023-04-13T11:30:13.034Z,14.60
2023-04-13T11:33:02.059Z,14.90
2023-04-13T11:35:50.347Z,14.30
2023-04-13T11:38:41.702Z,13.40
2023-04-13T11:41:30.756Z,12.70
2023-04-13T11:44:21.288Z,12.40
2023-04-13T11:47:11.402Z,12.10
2023-04-13T11:50:01.805Z,12.10
2023-04-13T11:52:52.307Z,12.10
2023-04-13T11:55:51.814Z,12.20
2023-04-13T11:58:29.194Z,12.90
2023-04-13T12:01:25.003Z,13.40
2023-04-13T12:04:14.524Z,13.60
2023-04-13T12:06:55.680Z,14.20
2023-04-13T12:15:42.761Z,15.10
2023-04-13T12:18:17.561Z,15.20
2023-04-13T12:21:03.343Z,14.70
2023-04-13T12:24:01.506Z,14.50
2023-04-13T12:29:41.395Z,14.00
2023-04-13T12:32:29.217Z,13.40
2023-04-13T12:35:18.739Z,13.10
2023-04-13T12:38:07.065Z,13.00
2023-04-13T12:40:59.865Z,13.20
2023-04-13T12:43:47.229Z,13.40
2023-04-13T12:46:34.502Z,13.50
2023-04-13T12:49:22.194Z,13.60
2023-04-13T12:52:09.403Z,13.60
2023-04-13T12:54:57.011Z,13.50
2023-04-13T12:57:45.079Z,12.50
2023-04-13T13:00:32.704Z,11.90
2023-04-13T13:03:20.211Z,11.30
2023-04-13T13:06:08.749Z,11.00
2023-04-13T13:08:55.934Z,10.80
2023-04-13T13:11:43.749Z,10.60
2023-04-13T13:14:32.559Z,10.50
2023-04-13T13:17:19.857Z,10.40
2023-04-13T13:20:09.634Z,10.50
2023-04-13T13:22:57.762Z,10.60
2023-04-13T13:25:59.218Z,10.70
2023-04-13T13:28:35.095Z,10.80
2023-04-13T13:31:22.519Z,10.80
2023-04-13T13:34:10.536Z,11.00
2023-04-13T13:36:58.870Z,11.40
2023-04-13T13:39:47.266Z,11.40
2023-04-13T13:42:47.875Z,11.60
2023-04-13T13:45:23.896Z,11.70
2023-04-13T13:48:11.610Z,11.90
2023-04-13T13:50:58.936Z,12.10
2023-04-13T13:53:46.519Z,12.30
2023-04-13T13:56:33.890Z,12.40
2023-04-13T13:59:21.492Z,12.50
2023-04-13T14:02:09.261Z,12.60
2023-04-13T14:04:56.691Z,12.70
2023-04-13T14:07:45.667Z,12.80
2023-04-13T14:10:32.781Z,12.80
2023-04-13T14:13:20.398Z,13.10
2023-04-13T14:16:08.333Z,13.20
2023-04-13T14:18:55.674Z,13.50
2023-04-13T14:21:42.937Z,13.80
2023-04-13T14:24:31.794Z,14.20
2023-04-13T14:27:21.308Z,14.60
2023-04-13T14:30:09.210Z,15.10
2023-04-13T14:32:56.801Z,15.50
2023-04-13T14:35:44.481Z,16.00
2023-04-13T14:38:31.796Z,16.10
2023-04-13T14:41:20.901Z,16.20
2023-04-13T14:44:08.560Z,16.50
2023-04-13T14:46:56.152Z,17.00
2023-04-13T14:49:43.385Z,17.20
2023-04-13T14:52:32.641Z,17.20
2023-04-13T14:55:19.882Z,16.90
2023-04-13T14:58:07.169Z,16.90
2023-04-13T15:00:57.569Z,16.90
2023-04-13T15:03:45.355Z,16.40
2023-04-13T15:06:34.004Z,16.40
2023-04-13T15:09:21.867Z,16.40
2023-04-13T15:12:13.079Z,16.10
2023-04-13T15:14:59.103Z,16.20
2023-04-13T15:17:46.957Z,16.20
2023-04-13T15:20:34.374Z,15.90
2023-04-13T15:23:21.852Z,15.80
2023-04-13T15:26:09.217Z,15.70
2023-04-13T15:28:56.536Z,15.50
2023-04-13T15:31:43.895Z,15.30
2023-04-13T15:34:31.491Z,15.10
2023-04-13T15:37:18.840Z,14.80
2023-04-13T15:40:07.743Z,14.40
2023-04-13T15:42:55.090Z,14.00
2023-04-13T15:45:42.369Z,13.70
2023-04-13T15:48:30.085Z,13.60
2023-04-13T15:51:17.290Z,13.50
2023-04-13T15:54:04.811Z,13.30
2023-04-13T15:56:52.931Z,13.30
2023-04-13T15:59:40.069Z,13.50
2023-04-13T16:02:27.630Z,13.40
2023-04-13T16:05:16.455Z,13.30
2023-04-13T16:08:03.841Z,13.20
2023-04-13T16:10:51.146Z,13.10
2023-04-13T16:13:49.426Z,13.10
2023-04-13T16:16:34.290Z,13.20
2023-04-13T16:19:23.490Z,13.30
2023-04-13T16:22:10.760Z,13.30
2023-04-13T16:24:58.613Z,13.40
2023-04-13T16:27:49.341Z,13.40
2023-04-13T16:30:36.466Z,13.60
2023-04-13T16:33:23.770Z,13.80
2023-04-13T16:36:11.504Z,13.90
2023-04-13T16:39:09.268Z,14.00
2023-04-13T16:41:57.793Z,14.00
2023-04-13T16:44:46.120Z,14.00
2023-04-13T16:47:33.623Z,13.90
2023-04-13T16:50:21.152Z,13.80
2023-04-13T16:53:08.697Z,13.70
2023-04-13T16:55:57.418Z,13.50
2023-04-13T16:58:44.573Z,13.30
2023-04-13T17:01:32.237Z,13.10
2023-04-13T17:04:19.800Z,12.90
2023-04-13T17:07:07.407Z,12.70
2023-04-13T17:09:55.826Z,12.50
2023-04-13T17:12:43.147Z,12.30
2023-04-13T17:15:30.620Z,12.20
2023-04-13T17:18:17.779Z,12.10
2023-04-13T17:21:05.311Z,12.10
2023-04-13T17:23:52.686Z,11.80
2023-04-13T17:26:40.421Z,11.80
2023-04-13T17:29:28.022Z,11.80
2023-04-13T17:32:15.558Z,11.70
2023-04-13T17:35:03.096Z,11.80
2023-04-13T17:37:50.669Z,12.00
2023-04-13T17:40:37.727Z,12.00
2023-04-13T17:43:25.355Z,11.90
2023-04-13T17:46:13.529Z,12.00
2023-04-13T17:49:01.436Z,12.10
2023-04-13T17:51:50.323Z,12.10
2023-04-13T17:54:39.265Z,12.20
2023-04-13T17:57:27.117Z,12.20
2023-04-13T18:00:15.271Z,12.20
2023-04-13T18:03:05.372Z,12.10
2023-04-13T18:05:52.113Z,12.10
2023-04-13T18:08:39.426Z,12.10
2023-04-13T18:11:26.714Z,12.10
2023-04-13T18:14:16.031Z,12.10
2023-04-13T18:17:03.158Z,12.10
2023-04-13T18:19:54.863Z,12.10
2023-04-13T18:22:42.294Z,12.00
2023-04-13T18:25:29.857Z,12.00
2023-04-13T18:28:18.016Z,11.90
2023-04-13T18:31:06.948Z,11.90
2023-04-13T18:33:54.416Z,11.70
2023-04-13T18:36:42.043Z,11.60
2023-04-13T18:39:29.318Z,11.50
2023-04-13T18:42:18.464Z,11.60
2023-04-13T18:45:06.284Z,11.50
2023-04-13T18:47:53.822Z,11.50
2023-04-13T18:50:41.133Z,11.50
2023-04-13T18:53:28.464Z,11.40
2023-04-13T18:56:16.017Z,11.30
2023-04-13T18:59:03.495Z,11.20
2023-04-13T19:01:51.809Z,11.30
2023-04-13T19:04:39.927Z,11.30
2023-04-13T19:07:28.108Z,11.40
2023-04-13T19:10:15.936Z,11.40
2023-04-13T19:13:03.346Z,11.50
2023-04-13T19:15:50.898Z,11.50
2023-04-13T19:18:38.527Z,11.50
2023-04-13T19:21:25.806Z,11.30
2023-04-13T19:24:13.730Z,11.20
2023-04-13T19:27:01.389Z,11.10
2023-04-13T19:29:48.833Z,11.00
2023-04-13T19:32:36.915Z,10.90
2023-04-13T19:35:26.179Z,10.80
2023-04-13T19:38:13.637Z,10.80
2023-04-13T19:41:01.258Z,10.80
2023-04-13T19:43:48.808Z,10.70
2023-04-13T19:46:37.270Z,10.60
2023-04-13T19:49:26.562Z,10.50
2023-04-13T19:52:15.517Z,10.50
2023-04-13T19:55:02.891Z,10.50
2023-04-13T19:57:49.987Z,10.40
2023-04-13T20:00:38.394Z,10.40
2023-04-13T20:03:27.685Z,10.40
2023-04-13T20:06:15.430Z,10.50
2023-04-13T20:09:15.492Z,10.40
2023-04-13T20:12:04.635Z,10.50
2023-04-13T20:14:51.843Z,10.50
2023-04-13T20:17:39.072Z,10.40
2023-04-13T20:20:27.764Z,10.50
2023-04-13T20:23:15.569Z,10.60
2023-04-13T20:26:04.467Z,10.60
2023-04-13T20:28:53.219Z,10.70
2023-04-13T20:31:40.934Z,10.70
2023-04-13T20:34:28.784Z,10.90
2023-04-13T20:37:17.958Z,10.80
2023-04-13T20:40:09.704Z,10.70
2023-04-13T20:42:58.568Z,10.50
2023-04-13T20:45:45.863Z,10.40
2023-04-13T20:51:25.614Z,10.50
2023-04-13T20:54:13.302Z,10.40
2023-04-13T20:57:01.374Z,10.50
2023-04-13T20:59:49.696Z,10.50
2023-04-13T21:02:37.302Z,10.50
2023-04-13T21:05:25.225Z,10.50
2023-04-13T21:08:12.385Z,10.50
2023-04-13T21:10:59.806Z,10.60
2023-04-13T21:13:47.184Z,10.60
2023-04-13T21:16:34.750Z,10.50
2023-04-13T21:19:23.015Z,10.50
2023-04-13T21:22:10.473Z,10.50
2023-04-13T21:24:57.742Z,10.50
2023-04-13T21:27:45.133Z,10.50
2023-04-13T21:30:32.455Z,10.50
2023-04-13T21:33:19.951Z,10.50
2023-04-13T21:39:00.338Z,10.40
2023-04-13T21:41:47.906Z,10.40
2023-04-13T21:44:35.824Z,10.30
2023-04-13T21:47:23.580Z,10.30
2023-04-13T21:50:11.068Z,10.20
2023-04-13T21:52:58.507Z,10.10
2023-04-13T21:55:45.935Z,10.00
2023-04-13T21:58:41.636Z,10.00
2023-04-13T22:01:28.920Z,10.00
2023-04-13T22:04:16.902Z,10.00
2023-04-13T22:07:04.176Z,10.00
2023-04-13T22:09:51.902Z,10.00
2023-04-13T22:12:39.240Z,10.00
2023-04-13T22:15:26.735Z,10.00
2023-04-13T22:18:14.256Z,9.90
2023-04-13T22:21:01.811Z,9.80
2023-04-13T22:23:49.525Z,9.60
2023-04-13T22:26:37.230Z,9.50
2023-04-13T22:29:24.643Z,9.30
2023-04-13T22:32:11.769Z,9.20
2023-04-13T22:34:59.008Z,8.90
2023-04-13T22:37:46.476Z,8.80
2023-04-13T22:40:33.855Z,8.60
2023-04-13T22:43:21.405Z,8.30
2023-04-13T22:46:08.720Z,8.20
2023-04-13T22:48:56.019Z,8.00
2023-04-13T22:51:43.339Z,8.00
2023-04-13T22:54:31.954Z,8.00
2023-04-13T22:57:19.280Z,8.00
2023-04-13T23:00:07.021Z,8.00
2023-04-13T23:02:56.092Z,8.00
2023-04-13T23:05:43.845Z,7.90
2023-04-13T23:08:31.133Z,7.90
2023-04-13T23:11:18.618Z,7.80
2023-04-13T23:14:06.511Z,7.60
2023-04-13T23:16:53.717Z,7.50
2023-04-13T23:19:41.270Z,7.40
2023-04-13T23:22:28.798Z,7.40
2023-04-13T23:25:16.548Z,7.40
2023-04-13T23:28:03.964Z,7.50
2023-04-13T23:30:51.513Z,7.60
2023-04-13T23:33:38.824Z,7.60
2023-04-13T23:36:26.555Z,7.60
2023-04-13T23:39:14.106Z,7.50
2023-04-13T23:42:01.834Z,7.40
2023-04-13T23:44:49.497Z,7.40
2023-04-13T23:47:37.766Z,7.40
2023-04-13T23:50:25.416Z,7.20
2023-04-13T23:53:12.949Z,7.00
2023-04-13T23:56:00.721Z,7.00
2023-04-13T23:58:47.980Z,7.10
